createdAt,value
2018-01-17T00:00:07.185Z,0
2018-01-17T00:01:07.096Z,0
2018-01-17T00:02:07.318Z,0
2018-01-17T00:03:07.034Z,0
2018-01-17T00:04:07.001Z,0
2018-01-17T00:05:07.224Z,0
2018-01-17T00:06:06.942Z,0
2018-01-17T00:07:06.910Z,0
2018-01-17T00:08:07.129Z,0
2018-01-17T00:09:07.097Z,0
2018-01-17T00:10:06.830Z,0
2018-01-17T00:11:07.039Z,0
2018-01-17T00:12:06.514Z,0
2018-01-17T00:13:06.725Z,0
2018-01-17T00:14:06.695Z,0
2018-01-17T00:15:06.915Z,0
2018-01-17T00:16:06.887Z,0
2018-01-17T00:17:06.362Z,0
2018-01-17T00:18:06.823Z,0
2018-01-17T00:19:06.545Z,0
2018-01-17T00:20:06.513Z,0
2018-01-17T00:21:06.487Z,0
2018-01-17T00:22:06.457Z,0
2018-01-17T00:23:06.667Z,0
2018-01-17T00:24:06.398Z,0
2018-01-17T00:25:06.610Z,0
2018-01-17T00:26:06.576Z,0
2018-01-17T00:27:06.552Z,0
2018-01-17T00:28:06.518Z,0
2018-01-17T00:29:06.490Z,0
2018-01-17T00:30:06.207Z,0
2018-01-17T00:31:06.428Z,0
2018-01-17T00:32:06.401Z,0
2018-01-17T00:33:06.372Z,0
2018-01-17T00:34:06.104Z,0
2018-01-17T00:35:05.813Z,0
2018-01-17T00:36:06.025Z,0
2018-01-17T00:37:06.247Z,0
2018-01-17T00:38:06.207Z,0
2018-01-17T00:39:06.177Z,0
2018-01-17T00:40:06.152Z,0
2018-01-17T00:41:06.196Z,0
2018-01-17T00:42:06.090Z,0
2018-01-17T00:43:05.855Z,0
2018-01-17T00:44:06.034Z,0
2018-01-17T00:45:06.010Z,0
2018-01-17T00:46:05.970Z,0
2018-01-17T00:47:05.935Z,0
2018-01-17T00:48:05.909Z,0
2018-01-17T00:49:05.916Z,0
2018-01-17T00:50:05.597Z,0
2018-01-17T00:51:05.824Z,0
2018-01-17T00:52:05.294Z,0
2018-01-17T00:53:05.514Z,0
2018-01-17T00:54:05.727Z,0
2018-01-17T00:55:05.204Z,0
2018-01-17T00:56:05.418Z,0
2018-01-17T00:57:05.391Z,0
2018-01-17T00:58:05.601Z,0
2018-01-17T00:59:05.577Z,0
2018-01-17T01:00:05.057Z,0
2018-01-17T01:01:05.518Z,0
2018-01-17T01:02:05.239Z,0
2018-01-17T01:03:05.206Z,0
2018-01-17T01:04:05.422Z,0
2018-01-17T01:05:05.149Z,0
2018-01-17T01:06:05.373Z,0
2018-01-17T01:07:05.142Z,0
2018-01-17T01:08:05.058Z,0
2018-01-17T01:09:05.030Z,0
2018-01-17T01:10:04.995Z,0
2018-01-17T01:11:05.247Z,0
2018-01-17T01:12:04.945Z,0
2018-01-17T01:13:04.667Z,0
2018-01-17T01:14:05.124Z,0
2018-01-17T01:15:04.847Z,0
2018-01-17T01:16:05.071Z,0
2018-01-17T01:17:05.031Z,0
2018-01-17T01:18:05.000Z,0
2018-01-17T01:19:04.731Z,0
2018-01-17T01:20:04.734Z,0
2018-01-17T01:21:04.674Z,0
2018-01-17T01:22:04.639Z,0
2018-01-17T01:23:04.366Z,0
2018-01-17T01:24:04.830Z,0
2018-01-17T01:25:04.550Z,0
2018-01-17T01:26:04.773Z,0
2018-01-17T01:27:04.491Z,0
2018-01-17T01:28:04.705Z,0
2018-01-17T01:29:04.680Z,0
2018-01-17T01:30:04.399Z,0
2018-01-17T01:31:04.618Z,0
2018-01-17T01:32:04.345Z,0
2018-01-17T01:33:04.563Z,0
2018-01-17T01:34:04.525Z,0
2018-01-17T01:35:04.250Z,0
2018-01-17T01:36:03.975Z,0
2018-01-17T01:37:04.292Z,0
2018-01-17T01:38:04.170Z,0
2018-01-17T01:39:04.376Z,0
2018-01-17T01:40:04.105Z,0
2018-01-17T01:41:04.080Z,0
2018-01-17T01:42:03.804Z,0
2018-01-17T01:43:04.012Z,0
2018-01-17T01:44:04.229Z,0
2018-01-17T01:45:04.207Z,0
2018-01-17T01:46:04.171Z,0
2018-01-17T01:47:03.892Z,0
2018-01-17T01:48:04.109Z,0
2018-01-17T01:49:04.080Z,0
2018-01-17T01:50:03.552Z,0
2018-01-17T01:51:03.527Z,0
2018-01-17T01:52:03.741Z,0
2018-01-17T01:53:03.709Z,0
2018-01-17T01:54:03.932Z,0
2018-01-17T01:55:03.402Z,0
2018-01-17T01:56:03.623Z,0
2018-01-17T01:57:03.587Z,0
2018-01-17T01:58:03.560Z,0
2018-01-17T01:59:03.523Z,0
2018-01-17T02:00:03.500Z,0
2018-01-17T02:01:03.219Z,0
2018-01-17T02:02:03.443Z,0
2018-01-17T02:03:03.649Z,0
2018-01-17T02:04:03.621Z,0
2018-01-17T02:05:03.348Z,0
2018-01-17T02:06:03.551Z,0
2018-01-17T02:07:03.522Z,0
2018-01-17T02:08:03.249Z,0
2018-01-17T02:09:03.218Z,0
2018-01-17T02:10:03.428Z,0
2018-01-17T02:11:02.913Z,0
2018-01-17T02:12:03.372Z,0
2018-01-17T02:13:03.341Z,0
2018-01-17T02:14:03.308Z,0
2018-01-17T02:15:03.277Z,0
2018-01-17T02:16:03.005Z,0
2018-01-17T02:17:03.212Z,0
2018-01-17T02:18:02.933Z,0
2018-01-17T02:19:03.152Z,0
2018-01-17T02:20:02.873Z,0
2018-01-17T02:21:02.841Z,0
2018-01-17T02:22:03.058Z,0
2018-01-17T02:23:03.031Z,0
2018-01-17T02:24:02.993Z,0
2018-01-17T02:25:02.717Z,0
2018-01-17T02:26:02.931Z,0
2018-01-17T02:27:02.654Z,0
2018-01-17T02:28:02.921Z,0
2018-01-17T02:29:02.835Z,0
2018-01-17T02:30:02.805Z,0
2018-01-17T02:31:02.528Z,0
2018-01-17T02:32:02.740Z,0
2018-01-17T02:33:02.322Z,0
2018-01-17T02:34:02.440Z,0
2018-01-17T02:35:02.648Z,0
2018-01-17T02:36:02.620Z,0
2018-01-17T02:37:02.333Z,0
2018-01-17T02:38:02.552Z,0
2018-01-17T02:39:02.522Z,0
2018-01-17T02:40:02.491Z,0
2018-01-17T02:41:02.464Z,0
2018-01-17T02:42:02.425Z,0
2018-01-17T02:43:02.389Z,0
2018-01-17T02:44:02.362Z,0
2018-01-17T02:45:01.829Z,0
2018-01-17T02:46:02.302Z,0
2018-01-17T02:47:02.254Z,0
2018-01-17T02:48:01.985Z,0
2018-01-17T02:49:02.196Z,0
2018-01-17T02:50:02.166Z,0
2018-01-17T02:51:01.882Z,0
2018-01-17T02:52:01.849Z,0
2018-01-17T02:53:02.066Z,0
2018-01-17T02:54:02.036Z,0
2018-01-17T02:55:02.006Z,0
2018-01-17T02:56:01.969Z,0
2018-01-17T02:57:01.447Z,0
2018-01-17T02:58:01.912Z,0
2018-01-17T02:59:01.626Z,0
2018-01-17T03:00:01.841Z,0
2018-01-17T03:01:01.810Z,0
2018-01-17T03:02:01.776Z,0
2018-01-17T03:03:01.751Z,0
2018-01-17T03:04:01.714Z,0
2018-01-17T03:05:01.434Z,0
2018-01-17T03:06:01.402Z,0
2018-01-17T03:07:01.613Z,0
2018-01-17T03:08:01.585Z,0
2018-01-17T03:09:01.310Z,0
2018-01-17T03:10:01.519Z,0
2018-01-17T03:11:00.997Z,0
2018-01-17T03:12:01.455Z,0
2018-01-17T03:13:01.431Z,0
2018-01-17T03:14:01.392Z,0
2018-01-17T03:15:01.366Z,0
2018-01-17T03:16:01.333Z,0
2018-01-17T03:17:01.300Z,0
2018-01-17T03:18:01.270Z,0
2018-01-17T03:19:01.243Z,0
2018-01-17T03:20:00.717Z,0
2018-01-17T03:21:01.174Z,0
2018-01-17T03:22:00.904Z,0
2018-01-17T03:23:00.619Z,0
2018-01-17T03:24:01.072Z,0
2018-01-17T03:25:01.046Z,0
2018-01-17T03:26:01.017Z,0
2018-01-17T03:27:00.982Z,0
2018-01-17T03:28:00.949Z,0
2018-01-17T03:29:00.923Z,0
2018-01-17T03:30:00.885Z,0
2018-01-17T03:31:00.866Z,0
2018-01-17T03:32:00.821Z,0
2018-01-17T03:33:00.545Z,0
2018-01-17T03:34:00.513Z,0
2018-01-17T03:35:00.232Z,0
2018-01-17T03:36:00.690Z,0
2018-01-17T03:37:00.658Z,0
2018-01-17T03:38:00.388Z,0
2018-01-17T03:39:00.358Z,0
2018-01-17T03:40:00.567Z,0
2018-01-17T03:41:00.532Z,0
2018-01-17T03:42:00.504Z,0
2018-01-17T03:43:00.475Z,0
2018-01-17T03:44:00.442Z,0
2018-01-17T03:45:00.162Z,0
2018-01-17T03:46:00.130Z,0
2018-01-17T03:47:00.349Z,0
2018-01-17T03:48:00.315Z,0
2018-01-17T03:49:00.036Z,0
2018-01-17T03:50:00.010Z,0
2018-01-17T03:50:59.972Z,0
2018-01-17T03:52:00.182Z,0
2018-01-17T03:53:00.151Z,0
2018-01-17T03:54:00.117Z,0
2018-01-17T03:54:59.851Z,0
2018-01-17T03:56:00.058Z,0
2018-01-17T03:57:00.032Z,0
2018-01-17T03:57:59.994Z,0
2018-01-17T03:58:59.959Z,0
2018-01-17T03:59:59.930Z,0
2018-01-17T04:00:59.657Z,0
2018-01-17T04:01:59.874Z,0
2018-01-17T04:02:59.832Z,0
2018-01-17T04:03:59.559Z,0
2018-01-17T04:04:59.532Z,0
2018-01-17T04:05:59.496Z,0
2018-01-17T04:06:59.708Z,0
2018-01-17T04:07:59.186Z,0
2018-01-17T04:08:59.744Z,0
2018-01-17T04:09:59.368Z,0
2018-01-17T04:10:59.332Z,0
2018-01-17T04:11:59.546Z,0
2018-01-17T04:12:59.548Z,0
2018-01-17T04:13:59.493Z,0
2018-01-17T04:14:59.452Z,0
2018-01-17T04:15:59.421Z,0
2018-01-17T04:16:59.396Z,0
2018-01-17T04:17:59.361Z,0
2018-01-17T04:18:58.841Z,0
2018-01-17T04:19:59.295Z,0
2018-01-17T04:20:59.264Z,0
2018-01-17T04:21:59.230Z,0
2018-01-17T04:22:59.203Z,0
2018-01-17T04:23:58.925Z,0
2018-01-17T04:24:58.895Z,0
2018-01-17T04:25:58.863Z,0
2018-01-17T04:26:58.582Z,0
2018-01-17T04:27:59.043Z,0
2018-01-17T04:28:58.771Z,0
2018-01-17T04:29:58.978Z,0
2018-01-17T04:30:58.951Z,0
2018-01-17T04:31:58.916Z,0
2018-01-17T04:32:58.883Z,0
2018-01-17T04:33:58.721Z,0
2018-01-17T04:34:58.575Z,0
2018-01-17T04:35:58.544Z,0
2018-01-17T04:36:58.274Z,0
2018-01-17T04:37:58.482Z,0
2018-01-17T04:38:58.695Z,0
2018-01-17T04:39:58.423Z,0
2018-01-17T04:40:58.688Z,0
2018-01-17T04:41:58.107Z,0
2018-01-17T04:42:58.568Z,0
2018-01-17T04:43:58.290Z,0
2018-01-17T04:44:58.502Z,0
2018-01-17T04:45:57.984Z,0
2018-01-17T04:46:58.201Z,0
2018-01-17T04:47:58.162Z,0
2018-01-17T04:48:58.385Z,0
2018-01-17T04:49:58.344Z,0
2018-01-17T04:50:57.583Z,0
2018-01-17T04:51:57.790Z,0
2018-01-17T04:52:58.250Z,0
2018-01-17T04:53:58.219Z,0
2018-01-17T04:54:58.189Z,0
2018-01-17T04:55:58.159Z,0
2018-01-17T04:56:57.635Z,0
2018-01-17T04:57:57.849Z,0
2018-01-17T04:58:57.817Z,0
2018-01-17T04:59:57.547Z,0
2018-01-17T05:00:58.000Z,0
2018-01-17T05:01:57.480Z,0
2018-01-17T05:02:57.690Z,0
2018-01-17T05:03:57.903Z,0
2018-01-17T05:04:57.888Z,0
2018-01-17T05:05:57.602Z,0
2018-01-17T05:06:57.866Z,0
2018-01-17T05:07:57.535Z,0
2018-01-17T05:08:57.742Z,0
2018-01-17T05:09:57.475Z,0
2018-01-17T05:10:57.688Z,0
2018-01-17T05:11:57.656Z,0
2018-01-17T05:12:57.719Z,0
2018-01-17T05:13:57.599Z,0
2018-01-17T05:14:57.073Z,0
2018-01-17T05:15:57.544Z,0
2018-01-17T05:16:57.001Z,0
2018-01-17T05:17:57.222Z,0
2018-01-17T05:18:57.180Z,0
2018-01-17T05:19:57.401Z,0
2018-01-17T05:20:57.128Z,0
2018-01-17T05:21:57.085Z,0
2018-01-17T05:22:57.302Z,0
2018-01-17T05:23:57.273Z,0
2018-01-17T05:24:56.747Z,0
2018-01-17T05:25:56.717Z,0
2018-01-17T05:26:56.929Z,0
2018-01-17T05:27:56.898Z,0
2018-01-17T05:28:56.864Z,0
2018-01-17T05:29:57.085Z,0
2018-01-17T05:30:56.810Z,0
2018-01-17T05:31:57.018Z,0
2018-01-17T05:32:56.766Z,0
2018-01-17T05:33:56.953Z,0
2018-01-17T05:34:56.676Z,0
2018-01-17T05:35:56.910Z,0
2018-01-17T05:36:56.861Z,0
2018-01-17T05:37:56.577Z,0
2018-01-17T05:38:56.304Z,0
2018-01-17T05:39:56.511Z,0
2018-01-17T05:40:56.236Z,0
2018-01-17T05:41:56.457Z,0
2018-01-17T05:42:56.720Z,0
2018-01-17T05:43:56.387Z,0
2018-01-17T05:44:56.605Z,0
2018-01-17T05:45:56.327Z,0
2018-01-17T05:46:56.540Z,0
2018-01-17T05:47:56.263Z,0
2018-01-17T05:48:56.231Z,0
2018-01-17T05:49:56.196Z,0
2018-01-17T05:50:56.165Z,0
2018-01-17T05:51:56.377Z,0
2018-01-17T05:52:56.349Z,0
2018-01-17T05:53:56.323Z,0
2018-01-17T05:54:56.041Z,0
2018-01-17T05:55:56.021Z,0
2018-01-17T05:56:55.732Z,0
2018-01-17T05:57:55.943Z,0
2018-01-17T05:58:55.908Z,0
2018-01-17T05:59:56.124Z,0
2018-01-17T06:00:55.608Z,0
2018-01-17T06:01:55.817Z,0
2018-01-17T06:02:56.037Z,0
2018-01-17T06:03:56.000Z,0
2018-01-17T06:04:55.966Z,0
2018-01-17T06:05:55.688Z,0
2018-01-17T06:06:55.905Z,0
2018-01-17T06:07:55.626Z,0
2018-01-17T06:08:55.596Z,0
2018-01-17T06:09:55.815Z,0
2018-01-17T06:10:55.533Z,0
2018-01-17T06:11:55.506Z,0
2018-01-17T06:12:55.225Z,0
2018-01-17T06:13:55.682Z,0
2018-01-17T06:14:55.410Z,0
2018-01-17T06:15:55.370Z,0
2018-01-17T06:16:55.343Z,0
2018-01-17T06:17:55.064Z,0
2018-01-17T06:18:55.621Z,0
2018-01-17T06:19:55.002Z,0
2018-01-17T06:20:54.970Z,0
2018-01-17T06:21:55.429Z,0
2018-01-17T06:22:55.393Z,0
2018-01-17T06:23:55.116Z,0
2018-01-17T06:24:55.334Z,0
2018-01-17T06:25:55.056Z,0
2018-01-17T06:26:55.022Z,0
2018-01-17T06:27:55.246Z,0
2018-01-17T06:28:55.115Z,0
2018-01-17T06:29:55.237Z,0
2018-01-17T06:30:55.136Z,0
2018-01-17T06:31:54.863Z,0
2018-01-17T06:32:54.828Z,0
2018-01-17T06:33:54.799Z,0
2018-01-17T06:34:55.016Z,0
2018-01-17T06:35:54.988Z,0
2018-01-17T06:36:54.461Z,0
2018-01-17T06:37:54.914Z,0
2018-01-17T06:38:54.739Z,0
2018-01-17T06:39:54.915Z,0
2018-01-17T06:40:54.820Z,0
2018-01-17T06:41:54.300Z,0
2018-01-17T06:42:54.268Z,0
2018-01-17T06:43:54.232Z,0
2018-01-17T06:44:54.495Z,0
2018-01-17T06:45:54.171Z,0
2018-01-17T06:46:54.633Z,0
2018-01-17T06:47:54.105Z,0
2018-01-17T06:48:54.563Z,0
2018-01-17T06:49:54.533Z,0
2018-01-17T06:50:54.016Z,4
2018-01-17T06:51:54.469Z,4
2018-01-17T06:52:54.444Z,4
2018-01-17T06:53:53.920Z,0
2018-01-17T06:54:54.195Z,4
2018-01-17T06:55:54.108Z,4
2018-01-17T06:56:53.817Z,4
2018-01-17T06:57:54.087Z,8
2018-01-17T06:58:54.006Z,8
2018-01-17T06:59:54.485Z,8
2018-01-17T07:00:54.288Z,8
2018-01-17T07:01:54.558Z,12
2018-01-17T07:02:54.522Z,12
2018-01-17T07:03:54.084Z,12
2018-01-17T07:04:53.864Z,8
2018-01-17T07:05:53.539Z,4
2018-01-17T07:06:53.751Z,4
2018-01-17T07:07:54.882Z,8
2018-01-17T07:08:54.915Z,12
2018-01-17T07:09:54.320Z,20
2018-01-17T07:10:54.917Z,28
2018-01-17T07:11:53.597Z,40
2018-01-17T07:12:53.558Z,48
2018-01-17T07:13:53.772Z,60
2018-01-17T07:14:53.496Z,72
2018-01-17T07:15:53.703Z,84
2018-01-17T07:16:53.677Z,96
2018-01-17T07:17:53.152Z,104
2018-01-17T07:18:53.372Z,120
2018-01-17T07:19:54.572Z,124
2018-01-17T07:20:53.310Z,128
2018-01-17T07:21:53.029Z,140
2018-01-17T07:22:53.482Z,164
2018-01-17T07:23:53.454Z,192
2018-01-17T07:24:53.182Z,216
2018-01-17T07:25:53.141Z,232
2018-01-17T07:26:53.367Z,232
2018-01-17T07:27:53.083Z,236
2018-01-17T07:28:53.096Z,276
2018-01-17T07:29:54.679Z,292
2018-01-17T07:30:53.522Z,280
2018-01-17T07:31:54.099Z,328
2018-01-17T07:32:52.924Z,356
2018-01-17T07:33:53.147Z,384
2018-01-17T07:34:53.088Z,416
2018-01-17T07:35:53.121Z,456
2018-01-17T07:36:52.797Z,492
2018-01-17T07:37:52.527Z,516
2018-01-17T07:38:52.527Z,556
2018-01-17T07:39:52.992Z,568
2018-01-17T07:40:52.673Z,584
2018-01-17T07:41:52.640Z,632
2018-01-17T07:42:52.361Z,652
2018-01-17T07:43:52.900Z,668
2018-01-17T07:44:52.788Z,704
2018-01-17T07:45:52.751Z,700
2018-01-17T07:46:52.234Z,688
2018-01-17T07:47:52.449Z,736
2018-01-17T07:48:52.671Z,884
2018-01-17T07:49:52.382Z,1108
2018-01-17T07:50:52.360Z,1224
2018-01-17T07:51:52.317Z,1252
2018-01-17T07:52:52.043Z,1252
2018-01-17T07:53:52.016Z,1272
2018-01-17T07:54:52.227Z,1184
2018-01-17T07:55:52.195Z,1312
2018-01-17T07:56:52.416Z,1356
2018-01-17T07:57:52.133Z,1568
2018-01-17T07:58:52.352Z,1648
2018-01-17T07:59:51.823Z,1604
2018-01-17T08:00:52.293Z,1448
2018-01-17T08:01:51.762Z,1164
2018-01-17T08:02:52.216Z,892
2018-01-17T08:03:51.938Z,1044
2018-01-17T08:04:51.875Z,1068
2018-01-17T08:05:52.725Z,972
2018-01-17T08:06:51.849Z,1032
2018-01-17T08:07:52.474Z,1048
2018-01-17T08:08:52.033Z,900
2018-01-17T08:09:51.989Z,740
2018-01-17T08:10:52.683Z,748
2018-01-17T08:11:51.572Z,852
2018-01-17T08:12:52.019Z,612
2018-01-17T08:13:51.411Z,452
2018-01-17T08:14:51.110Z,312
2018-01-17T08:15:51.902Z,304
2018-01-17T08:16:51.660Z,344
2018-01-17T08:17:51.769Z,328
2018-01-17T08:18:51.709Z,240
2018-01-17T08:20:23.580Z,304
2018-01-17T08:20:51.400Z,296
2018-01-17T08:21:51.888Z,296
2018-01-17T08:22:51.350Z,300
2018-01-17T08:23:51.317Z,312
2018-01-17T08:24:51.530Z,304
2018-01-17T08:25:51.506Z,268
2018-01-17T08:26:51.464Z,244
2018-01-17T08:27:51.191Z,376
2018-01-17T08:28:51.161Z,432
2018-01-17T08:29:51.131Z,468
2018-01-17T08:30:51.096Z,584
2018-01-17T08:31:51.022Z,788
2018-01-17T08:32:51.036Z,1116
2018-01-17T08:33:51.250Z,1496
2018-01-17T08:34:50.728Z,1488
2018-01-17T08:35:51.187Z,1444
2018-01-17T08:36:51.155Z,1668
2018-01-17T08:37:51.122Z,1428
2018-01-17T08:38:50.845Z,1464
2018-01-17T08:39:51.058Z,1716
2018-01-17T08:40:51.029Z,1592
2018-01-17T08:41:51.002Z,1708
2018-01-17T08:42:50.720Z,1600
2018-01-17T08:43:50.935Z,2080
2018-01-17T08:44:50.903Z,2488
2018-01-17T08:45:50.628Z,2464
2018-01-17T08:46:50.345Z,2656
2018-01-17T08:47:50.572Z,2460
2018-01-17T08:48:50.786Z,2052
2018-01-17T08:49:50.751Z,1560
2018-01-17T08:50:50.468Z,1480
2018-01-17T08:51:49.945Z,1396
2018-01-17T08:52:50.654Z,1156
2018-01-17T08:53:50.734Z,1320
2018-01-17T08:54:50.342Z,1736
2018-01-17T08:55:50.559Z,1540
2018-01-17T08:56:50.286Z,1636
2018-01-17T08:57:50.245Z,2072
2018-01-17T08:58:50.219Z,1580
2018-01-17T08:59:50.441Z,840
2018-01-17T09:00:50.176Z,916
2018-01-17T09:01:50.369Z,1184
2018-01-17T09:02:50.338Z,1492
2018-01-17T09:03:50.309Z,1432
2018-01-17T09:04:50.428Z,1640
2018-01-17T09:05:49.753Z,1820
2018-01-17T09:06:50.213Z,1736
2018-01-17T09:07:49.933Z,1084
2018-01-17T09:08:50.149Z,756
2018-01-17T09:09:49.870Z,492
2018-01-17T09:10:50.083Z,428
2018-01-17T09:11:50.054Z,444
2018-01-17T09:12:49.791Z,732
2018-01-17T09:13:49.746Z,916
2018-01-17T09:14:49.466Z,972
2018-01-17T09:15:49.933Z,1124
2018-01-17T09:16:49.895Z,1180
2018-01-17T09:17:49.865Z,968
2018-01-17T09:18:49.341Z,928
2018-01-17T09:19:49.805Z,1164
2018-01-17T09:20:49.526Z,1236
2018-01-17T09:21:49.485Z,1592
2018-01-17T09:22:49.454Z,2032
2018-01-17T09:23:49.179Z,2148
2018-01-17T09:24:49.147Z,2560
2018-01-17T09:25:49.363Z,2800
2018-01-17T09:26:49.577Z,2976
2018-01-17T09:27:49.540Z,3160
2018-01-17T09:28:49.618Z,3408
2018-01-17T09:29:48.988Z,3548
2018-01-17T09:30:49.202Z,2552
2018-01-17T09:31:49.168Z,2288
2018-01-17T09:32:49.387Z,2324
2018-01-17T09:33:49.362Z,3612
2018-01-17T09:34:49.082Z,4828
2018-01-17T09:35:48.553Z,4412
2018-01-17T09:36:49.066Z,4092
2018-01-17T09:37:49.230Z,4312
2018-01-17T09:38:51.298Z,4524
2018-01-17T09:39:48.928Z,5596
2018-01-17T09:40:48.885Z,5812
2018-01-17T09:41:49.164Z,5480
2018-01-17T09:42:49.079Z,5836
2018-01-17T09:43:48.796Z,7632
2018-01-17T09:44:48.769Z,5724
2018-01-17T09:45:48.729Z,5192
2018-01-17T09:46:48.942Z,7188
2018-01-17T09:47:48.441Z,8032
2018-01-17T09:48:48.633Z,9808
2018-01-17T09:49:48.855Z,8940
2018-01-17T09:50:48.818Z,10608
2018-01-17T09:51:48.586Z,14456
2018-01-17T09:52:48.762Z,17120
2018-01-17T09:53:48.729Z,15716
2018-01-17T09:54:48.498Z,15528
2018-01-17T09:55:48.684Z,14672
2018-01-17T09:56:49.215Z,10548
2018-01-17T09:57:48.612Z,6552
2018-01-17T09:58:48.573Z,4448
2018-01-17T09:59:48.546Z,4328
2018-01-17T10:00:48.511Z,5244
2018-01-17T10:01:48.238Z,6900
2018-01-17T10:02:48.451Z,8076
2018-01-17T10:03:48.426Z,8644
2018-01-17T10:04:47.896Z,8296
2018-01-17T10:05:48.361Z,8424
2018-01-17T10:06:48.083Z,10348
2018-01-17T10:07:48.371Z,10776
2018-01-17T10:08:48.317Z,8968
2018-01-17T10:09:48.462Z,7924
2018-01-17T10:10:48.803Z,7804
2018-01-17T10:11:48.125Z,6408
2018-01-17T10:12:48.421Z,4524
2018-01-17T10:13:48.663Z,4012
2018-01-17T10:14:48.260Z,4356
2018-01-17T10:15:47.718Z,3976
2018-01-17T10:16:47.830Z,4112
2018-01-17T10:17:47.853Z,3908
2018-01-17T10:18:47.971Z,2948
2018-01-17T10:19:47.203Z,2408
2018-01-17T10:20:47.907Z,1992
2018-01-17T10:21:47.872Z,1968
2018-01-17T10:22:47.607Z,2268
2018-01-17T10:23:47.855Z,4272
2018-01-17T10:24:47.785Z,5820
2018-01-17T10:25:47.510Z,7272
2018-01-17T10:26:47.720Z,6896
2018-01-17T10:27:47.443Z,6164
2018-01-17T10:28:47.658Z,5612
2018-01-17T10:29:47.635Z,5568
2018-01-17T10:30:47.595Z,5692
2018-01-17T10:31:47.582Z,6856
2018-01-17T10:32:47.331Z,5852
2018-01-17T10:33:47.514Z,6104
2018-01-17T10:34:47.493Z,7260
2018-01-17T10:35:47.202Z,8468
2018-01-17T10:36:47.416Z,8528
2018-01-17T10:37:47.141Z,7724
2018-01-17T10:38:47.357Z,7120
2018-01-17T10:39:47.331Z,8164
2018-01-17T10:40:47.053Z,7212
2018-01-17T10:41:47.266Z,6148
2018-01-17T10:42:47.228Z,6120
2018-01-17T10:43:47.244Z,5568
2018-01-17T10:44:46.927Z,5128
2018-01-17T10:45:46.897Z,6228
2018-01-17T10:46:47.113Z,7736
2018-01-17T10:47:47.080Z,7820
2018-01-17T10:48:46.806Z,7568
2018-01-17T10:49:47.031Z,5044
2018-01-17T10:50:46.748Z,4592
2018-01-17T10:51:46.961Z,6180
2018-01-17T10:52:46.928Z,7064
2018-01-17T10:53:46.902Z,5636
2018-01-17T10:54:46.716Z,4944
2018-01-17T10:55:46.839Z,3768
2018-01-17T10:56:46.809Z,3324
2018-01-17T10:57:47.040Z,4388
2018-01-17T10:58:46.967Z,4516
2018-01-17T10:59:47.111Z,4468
2018-01-17T11:00:46.376Z,6028
2018-01-17T11:01:46.545Z,4848
2018-01-17T11:02:46.384Z,4732
2018-01-17T11:03:46.355Z,7024
2018-01-17T11:04:46.641Z,7404
2018-01-17T11:05:46.683Z,7224
2018-01-17T11:06:46.510Z,6376
2018-01-17T11:07:46.440Z,6408
2018-01-17T11:08:47.102Z,7312
2018-01-17T11:09:47.540Z,6040
2018-01-17T11:10:46.440Z,7116
2018-01-17T11:11:45.906Z,7464
2018-01-17T11:12:46.727Z,7116
2018-01-17T11:13:46.574Z,7016
2018-01-17T11:14:46.699Z,8144
2018-01-17T11:15:46.126Z,8716
2018-01-17T11:16:45.931Z,9060
2018-01-17T11:17:46.309Z,10504
2018-01-17T11:18:45.655Z,9676
2018-01-17T11:19:46.284Z,9080
2018-01-17T11:20:45.882Z,11268
2018-01-17T11:21:46.621Z,11700
2018-01-17T11:22:46.060Z,11288
2018-01-17T11:23:45.508Z,11060
2018-01-17T11:24:46.038Z,10568
2018-01-17T11:25:45.932Z,9420
2018-01-17T11:26:45.669Z,7296
2018-01-17T11:27:45.884Z,4452
2018-01-17T11:28:45.860Z,3816
2018-01-17T11:29:45.957Z,4448
2018-01-17T11:30:45.793Z,4804
2018-01-17T11:31:45.508Z,6116
2018-01-17T11:32:45.483Z,5172
2018-01-17T11:33:46.129Z,6612
2018-01-17T11:34:45.763Z,4976
2018-01-17T11:35:45.790Z,6428
2018-01-17T11:36:45.765Z,7704
2018-01-17T11:37:45.665Z,6940
2018-01-17T11:38:45.560Z,6796
2018-01-17T11:39:45.545Z,5636
2018-01-17T11:40:45.649Z,3668
2018-01-17T11:41:45.217Z,4504
2018-01-17T11:42:45.275Z,5072
2018-01-17T11:43:45.621Z,4524
2018-01-17T11:44:45.131Z,3540
2018-01-17T11:45:45.338Z,3868
2018-01-17T11:46:45.314Z,3932
2018-01-17T11:47:45.035Z,4164
2018-01-17T11:48:45.248Z,3680
2018-01-17T11:49:44.982Z,3424
2018-01-17T11:50:45.189Z,4036
2018-01-17T11:51:44.925Z,3956
2018-01-17T11:52:45.148Z,4496
2018-01-17T11:53:44.361Z,3580
2018-01-17T11:54:44.827Z,3564
2018-01-17T11:55:44.797Z,3180
2018-01-17T11:56:45.011Z,3196
2018-01-17T11:57:44.732Z,2428
2018-01-17T11:58:44.706Z,1572
2018-01-17T11:59:44.923Z,1388
2018-01-17T12:00:44.645Z,1536
2018-01-17T12:01:44.626Z,1912
2018-01-17T12:02:44.588Z,2960
2018-01-17T12:03:44.582Z,3324
2018-01-17T12:04:44.525Z,4872
2018-01-17T12:05:44.490Z,4676
2018-01-17T12:06:44.457Z,3248
2018-01-17T12:07:44.682Z,2916
2018-01-17T12:08:44.396Z,3468
2018-01-17T12:09:44.365Z,4144
2018-01-17T12:10:44.585Z,4192
2018-01-17T12:11:44.309Z,5276
2018-01-17T12:12:44.523Z,5796
2018-01-17T12:13:44.490Z,4876
2018-01-17T12:14:44.215Z,5968
2018-01-17T12:15:43.937Z,8208
2018-01-17T12:16:44.149Z,10804
2018-01-17T12:17:43.873Z,10620
2018-01-17T12:18:43.848Z,9604
2018-01-17T12:19:44.305Z,8364
2018-01-17T12:20:44.283Z,7432
2018-01-17T12:21:44.249Z,8352
2018-01-17T12:22:44.217Z,6288
2018-01-17T12:23:43.942Z,6000
2018-01-17T12:24:44.264Z,7292
2018-01-17T12:25:43.880Z,10704
2018-01-17T12:26:44.093Z,10924
2018-01-17T12:27:44.063Z,9360
2018-01-17T12:28:44.031Z,10692
2018-01-17T12:29:44.007Z,8672
2018-01-17T12:30:43.727Z,7484
2018-01-17T12:31:43.938Z,5480
2018-01-17T12:32:43.667Z,4824
2018-01-17T12:33:43.636Z,5372
2018-01-17T12:34:43.865Z,9724
2018-01-17T12:35:43.670Z,11660
2018-01-17T12:36:43.545Z,11656
2018-01-17T12:37:43.759Z,12964
2018-01-17T12:38:43.739Z,12600
2018-01-17T12:39:43.705Z,11120
2018-01-17T12:40:43.676Z,9972
2018-01-17T12:41:43.401Z,10620
2018-01-17T12:42:43.363Z,9200
2018-01-17T12:43:43.613Z,9180
2018-01-17T12:44:43.558Z,9600
2018-01-17T12:45:43.525Z,11100
2018-01-17T12:46:43.007Z,13940
2018-01-17T12:47:43.224Z,16492
2018-01-17T12:48:43.189Z,19488
2018-01-17T12:49:42.915Z,20608
2018-01-17T12:50:43.379Z,20832
2018-01-17T12:51:43.098Z,18208
2018-01-17T12:52:43.326Z,15104
2018-01-17T12:53:43.043Z,15868
2018-01-17T12:54:43.261Z,15296
2018-01-17T12:55:43.239Z,14072
2018-01-17T12:56:43.202Z,17056
2018-01-17T12:57:43.177Z,15992
2018-01-17T12:58:43.146Z,17984
2018-01-17T12:59:43.117Z,14604
2018-01-17T13:00:43.084Z,14320
2018-01-17T13:01:43.057Z,10440
2018-01-17T13:02:42.788Z,12452
2018-01-17T13:03:43.008Z,12284
2018-01-17T13:04:42.976Z,9828
2018-01-17T13:05:42.696Z,10760
2018-01-17T13:06:42.670Z,15692
2018-01-17T13:07:42.459Z,15920
2018-01-17T13:08:42.616Z,15764
2018-01-17T13:09:42.590Z,15816
2018-01-17T13:10:42.831Z,14040
2018-01-17T13:11:42.775Z,15624
2018-01-17T13:12:42.741Z,14992
2018-01-17T13:13:42.470Z,12324
2018-01-17T13:14:42.690Z,10456
2018-01-17T13:15:42.486Z,11152
2018-01-17T13:16:42.633Z,10656
2018-01-17T13:17:42.359Z,10904
2018-01-17T13:18:42.582Z,12496
2018-01-17T13:19:42.562Z,11176
2018-01-17T13:20:42.031Z,11436
2018-01-17T13:21:42.499Z,9404
2018-01-17T13:22:42.464Z,11160
2018-01-17T13:23:42.434Z,12860
2018-01-17T13:24:42.410Z,10764
2018-01-17T13:25:42.373Z,7928
2018-01-17T13:26:42.410Z,5168
2018-01-17T13:27:42.087Z,2592
2018-01-17T13:28:41.800Z,1736
2018-01-17T13:29:42.038Z,2412
2018-01-17T13:30:42.296Z,3372
2018-01-17T13:31:41.960Z,2708
2018-01-17T13:32:42.182Z,2444
2018-01-17T13:33:42.150Z,2184
2018-01-17T13:34:41.878Z,2000
2018-01-17T13:35:42.093Z,2560
2018-01-17T13:36:42.064Z,3092
2018-01-17T13:37:42.036Z,2636
2018-01-17T13:38:41.513Z,1672
2018-01-17T13:39:41.601Z,1476
2018-01-17T13:40:41.958Z,1296
2018-01-17T13:41:42.005Z,1668
2018-01-17T13:42:41.491Z,2244
2018-01-17T13:43:41.712Z,2024
2018-01-17T13:44:41.834Z,1684
2018-01-17T13:45:41.994Z,2012
2018-01-17T13:46:41.144Z,2176
2018-01-17T13:47:41.375Z,1908
2018-01-17T13:48:41.317Z,1188
2018-01-17T13:49:41.224Z,964
2018-01-17T13:50:41.508Z,788
2018-01-17T13:51:41.237Z,712
2018-01-17T13:52:41.595Z,672
2018-01-17T13:53:41.710Z,700
2018-01-17T13:54:41.167Z,596
2018-01-17T13:55:41.199Z,536
2018-01-17T13:56:41.345Z,676
2018-01-17T13:57:41.110Z,796
2018-01-17T13:58:41.511Z,712
2018-01-17T13:59:41.459Z,636
2018-01-17T14:00:41.225Z,612
2018-01-17T14:01:41.493Z,900